»·PEaware :: N43XS KYKM-CYLW

N43XS :: KYKM-CYLW

FLIGHT INFORMATION

Flight Status: Arrived
Operator: Privately registered:
United States
More flights under this callsign
Pilot: Maurice C. (12314)
Aircraft: BEECH AIRCRAFT A90-E90 KING AIR
(BE9L)
More flights by this aircraft type
Origin: KYKM Yakima Air Term/Mcallister
United States
Destination: CYLW Kelowna
Canada
More flights between these airports :: More routes between these airports
Route: +
File this flight plan on PilotEdge
Remarks:
Altitude:
(Current/Filed)
12,500ft
Speed:
(Current/Filed)
175kts
Departed: 14-Jun-17 07:57 AM
Arrived: 14-Jun-17 09:11 AM
Distance/Time
Traveled:
209nm/1:14
Distance/Time
To Go:
Arrived

Flight Plot

Page will automatically refresh every two minutes.

Flight plan parsing failed; only flown route is shown


Map Options




Map Legend


Flown Route
Filed Route
Departure Airport
Arrival Airport
Navaid (VOR, NDB)
Fix

Horizontal Profiles

Position Reports

Time Latitude Longitude Heading Altitude Ground
Speed
14-Jun-17 07:27 46.569389 -120.537824 40 1072ft 0kts
14-Jun-17 07:28 46.569389 -120.537824 40 1072ft 0kts
14-Jun-17 07:29 46.569389 -120.537824 40 1072ft 0kts
14-Jun-17 07:30 46.569389 -120.537824 40 1072ft 0kts
14-Jun-17 07:31 46.569389 -120.537824 40 1072ft 0kts
14-Jun-17 07:32 46.569389 -120.537824 40 1072ft 0kts
14-Jun-17 07:33 46.569389 -120.537824 40 1072ft 0kts
14-Jun-17 07:34 46.569389 -120.537824 40 1072ft 0kts
14-Jun-17 07:35 46.569389 -120.537824 40 1072ft 0kts
14-Jun-17 07:36 46.569389 -120.537824 40 1072ft 0kts
14-Jun-17 07:37 46.569389 -120.537824 40 1072ft 0kts
14-Jun-17 07:38 46.569389 -120.537824 40 1072ft 0kts
14-Jun-17 07:39 46.569389 -120.537824 40 1072ft 0kts
14-Jun-17 07:40 46.569389 -120.537824 40 1072ft 0kts
14-Jun-17 07:41 46.569389 -120.537824 40 1072ft 0kts
14-Jun-17 07:42 46.569389 -120.537824 40 1072ft 0kts
14-Jun-17 07:45 46.569464 -120.538011 270 1072ft 0kts
14-Jun-17 07:46 46.569464 -120.538011 270 1072ft 0kts
14-Jun-17 07:47 46.569464 -120.538011 270 1072ft 0kts
14-Jun-17 07:48 46.569464 -120.538011 270 1072ft 0kts
14-Jun-17 07:49 46.569464 -120.538011 270 1072ft 0kts
14-Jun-17 07:50 46.569464 -120.538011 270 1072ft 0kts
14-Jun-17 07:51 46.569464 -120.538011 270 1072ft 0kts
14-Jun-17 07:52 46.569464 -120.538012 269 1072ft 0kts
14-Jun-17 07:53 46.569464 -120.538012 269 1072ft 0kts
14-Jun-17 07:54 46.569464 -120.538012 270 1072ft 0kts
14-Jun-17 07:55 46.569464 -120.538012 270 1072ft 0kts
14-Jun-17 07:56 46.568934 -120.538294 180 1073ft 15kts
14-Jun-17 07:57 46.566621 -120.531551 163 1072ft 2kts
14-Jun-17 07:58 46.566497 -120.531513 170 1072ft 0kts
14-Jun-17 07:59 46.567115 -120.537908 290 1072ft 96kts
14-Jun-17 08:00 46.579506 -120.588623 279 2437ft 133kts
14-Jun-17 08:01 46.577512 -120.636912 259 4692ft 128kts
14-Jun-17 08:02 46.575526 -120.694301 311 6606ft 106kts
14-Jun-17 08:03 46.609607 -120.733830 326 7013ft 174kts
14-Jun-17 08:04 46.651512 -120.771760 326 7799ft 178kts
14-Jun-17 08:05 46.694072 -120.808366 336 8749ft 179kts
14-Jun-17 08:06 46.742223 -120.826925 341 9708ft 178kts
14-Jun-17 08:07 46.790372 -120.843043 341 10660ft 178kts
14-Jun-17 08:08 46.839265 -120.855312 347 11615ft 180kts
14-Jun-17 08:09 46.889119 -120.862114 347 12472ft 185kts
14-Jun-17 08:10 46.944454 -120.869105 349 12484ft 210kts
14-Jun-17 08:11 47.002944 -120.876292 349 12482ft 215kts
14-Jun-17 08:12 47.061894 -120.884228 349 12482ft 216kts
14-Jun-17 08:14 47.116238 -120.891150 351 12481ft 216kts
14-Jun-17 08:15 47.173514 -120.896047 351 12481ft 216kts
14-Jun-17 08:16 47.233762 -120.899346 353 12481ft 217kts
14-Jun-17 08:17 47.294212 -120.901398 353 12481ft 217kts
14-Jun-17 08:18 47.354439 -120.903425 354 12481ft 217kts
14-Jun-17 08:19 47.414752 -120.905433 354 12481ft 217kts
14-Jun-17 08:20 47.473548 -120.907377 354 12481ft 217kts
14-Jun-17 08:21 47.533162 -120.909331 354 12481ft 217kts
14-Jun-17 08:22 47.593143 -120.911288 354 12480ft 217kts
14-Jun-17 08:23 47.653514 -120.913232 354 12479ft 217kts
14-Jun-17 08:24 47.710140 -120.914574 354 12473ft 193kts
14-Jun-17 08:25 47.762604 -120.915270 354 12470ft 186kts
14-Jun-17 08:26 47.814588 -120.915868 354 12411ft 185kts
14-Jun-17 08:27 47.865460 -120.916400 354 12408ft 184kts
14-Jun-17 08:28 47.915927 -120.916857 354 12408ft 183kts
14-Jun-17 08:29 47.966850 -120.913932 4 12408ft 186kts
14-Jun-17 08:30 48.017783 -120.897880 8 12409ft 187kts
14-Jun-17 08:31 48.068354 -120.878737 9 12409ft 188kts
14-Jun-17 08:32 48.116471 -120.860362 9 12408ft 187kts
14-Jun-17 08:33 48.166497 -120.837458 13 12409ft 188kts
14-Jun-17 08:34 48.216168 -120.813008 13 12415ft 188kts
14-Jun-17 08:35 48.266374 -120.791152 9 12419ft 187kts
14-Jun-17 08:36 48.316695 -120.771827 9 12420ft 187kts
14-Jun-17 08:37 48.367211 -120.752393 9 12419ft 188kts
14-Jun-17 08:38 48.417815 -120.732893 9 12417ft 188kts
14-Jun-17 08:38 48.459814 -120.716698 9 12416ft 188kts
14-Jun-17 08:40 48.518685 -120.693964 9 12415ft 188kts
14-Jun-17 08:41 48.569019 -120.674521 9 12415ft 188kts
14-Jun-17 08:42 48.619492 -120.654991 9 12417ft 188kts
14-Jun-17 08:42 48.661466 -120.638730 9 12418ft 188kts
14-Jun-17 08:44 48.720412 -120.615887 8 12425ft 198kts
14-Jun-17 08:45 48.777626 -120.594562 8 12420ft 221kts
14-Jun-17 08:46 48.836844 -120.572749 8 12419ft 224kts
14-Jun-17 08:46 48.886484 -120.554416 8 12459ft 222kts
14-Jun-17 08:48 48.955479 -120.520156 30 12171ft 239kts
14-Jun-17 08:48 49.000088 -120.470410 32 11795ft 243kts
14-Jun-17 08:49 49.049659 -120.401595 47 11342ft 247kts
14-Jun-17 08:50 49.091767 -120.332442 45 10831ft 250kts
14-Jun-17 08:51 49.132592 -120.257552 59 10119ft 253kts
14-Jun-17 08:52 49.153669 -120.162659 77 9493ft 249kts
14-Jun-17 08:53 49.168642 -120.066242 67 9465ft 236kts
14-Jun-17 08:54 49.202664 -119.982348 42 9203ft 237kts
14-Jun-17 08:55 49.240623 -119.900108 60 8898ft 240kts
14-Jun-17 08:56 49.272004 -119.810126 60 8600ft 240kts
14-Jun-17 08:57 49.302686 -119.721748 59 8454ft 234kts
14-Jun-17 08:58 49.336117 -119.637597 50 8397ft 233kts
14-Jun-17 08:59 49.386945 -119.581371 5 7983ft 232kts
14-Jun-17 09:00 49.448515 -119.577492 359 7558ft 205kts
14-Jun-17 09:01 49.503098 -119.579609 351 7096ft 192kts
14-Jun-17 09:02 49.554261 -119.594458 340 6593ft 189kts
14-Jun-17 09:03 49.604131 -119.619949 339 6086ft 189kts
14-Jun-17 09:04 49.653686 -119.645901 339 5579ft 188kts
14-Jun-17 09:05 49.703265 -119.670878 352 5065ft 188kts
14-Jun-17 09:06 49.754414 -119.663244 26 4545ft 189kts
14-Jun-17 09:07 49.793313 -119.617986 62 4454ft 176kts
14-Jun-17 09:08 49.824771 -119.558600 58 4275ft 186kts
14-Jun-17 09:09 49.853063 -119.488724 60 3804ft 196kts
14-Jun-17 09:10 49.893055 -119.431345 31 3318ft 202kts
14-Jun-17 09:11 49.926855 -119.374642 8 2169ft 184kts
14-Jun-17 09:12 49.961627 -119.378765 358 1412ft 60kts
14-Jun-17 09:13 49.965972 -119.380543 241 1412ft 12kts
14-Jun-17 09:14 49.964350 -119.380889 80 1412ft 0kts

Navigation Log

Ident Type
Flight plan parsing failed, navigation log unavailable